createdAt,value
2024-02-20T00:00:01.677Z,710.00
2024-02-20T00:01:01.834Z,712.00
2024-02-20T00:02:01.896Z,711.00
2024-02-20T00:03:01.864Z,710.00
2024-02-20T00:04:01.928Z,711.00
2024-02-20T00:05:02.000Z,714.00
2024-02-20T00:06:02.059Z,711.00
2024-02-20T00:07:02.124Z,711.00
2024-02-20T00:08:02.142Z,710.00
2024-02-20T00:09:02.241Z,711.00
2024-02-20T00:10:02.314Z,711.00
2024-02-20T00:11:02.307Z,709.00
2024-02-20T00:12:02.333Z,709.00
2024-02-20T00:13:02.362Z,707.00
2024-02-20T00:14:02.337Z,708.00
2024-02-20T00:15:02.369Z,707.00
2024-02-20T00:16:02.401Z,708.00
2024-02-20T00:17:02.373Z,710.00
2024-02-20T00:18:02.541Z,712.00
2024-02-20T00:19:02.530Z,711.00
2024-02-20T00:20:02.494Z,713.00
2024-02-20T00:21:02.388Z,711.00
2024-02-20T00:22:02.448Z,713.00
2024-02-20T00:23:02.400Z,713.00
2024-02-20T00:24:02.421Z,713.00
2024-02-20T00:25:02.590Z,712.00
2024-02-20T00:26:02.502Z,713.00
2024-02-20T00:27:02.533Z,711.00
2024-02-20T00:28:02.598Z,710.00
2024-02-20T00:29:02.589Z,711.00
2024-02-20T00:30:02.629Z,711.00
2024-02-20T00:31:02.730Z,710.00
2024-02-20T00:32:02.670Z,711.00
2024-02-20T00:33:02.728Z,713.00
2024-02-20T00:34:02.978Z,716.00
2024-02-20T00:35:02.979Z,715.00
2024-02-20T00:36:02.868Z,715.00
2024-02-20T00:37:02.927Z,715.00
2024-02-20T00:38:02.971Z,717.00
2024-02-20T00:39:03.006Z,718.00
2024-02-20T00:40:03.104Z,720.00
2024-02-20T00:41:03.037Z,721.00
2024-02-20T00:42:03.044Z,721.00
2024-02-20T00:43:03.052Z,723.00
2024-02-20T00:44:03.059Z,722.00
2024-02-20T00:45:03.114Z,722.00
2024-02-20T00:46:03.119Z,719.00
2024-02-20T00:47:03.148Z,718.00
2024-02-20T00:48:03.362Z,717.00
2024-02-20T00:49:03.338Z,718.00
2024-02-20T00:50:03.320Z,715.00
2024-02-20T00:51:03.339Z,713.00
2024-02-20T00:52:03.407Z,711.00
2024-02-20T00:53:03.429Z,711.00
2024-02-20T00:54:03.471Z,709.00
2024-02-20T00:55:03.584Z,712.00
2024-02-20T00:56:03.550Z,713.00
2024-02-20T00:57:03.568Z,715.00
2024-02-20T00:58:03.607Z,716.00
2024-02-20T00:59:03.615Z,718.00
2024-02-20T01:00:03.631Z,718.00
2024-02-20T01:01:03.783Z,720.00
2024-02-20T01:02:03.800Z,720.00
2024-02-20T01:03:03.716Z,719.00
2024-02-20T01:04:03.797Z,720.00
2024-02-20T01:05:03.894Z,720.00
2024-02-20T01:06:03.778Z,721.00
2024-02-20T01:07:03.782Z,719.00
2024-02-20T01:08:03.798Z,718.00
2024-02-20T01:09:03.840Z,719.00
2024-02-20T01:10:03.939Z,718.00
2024-02-20T01:11:03.897Z,719.00
2024-02-20T01:12:04.014Z,720.00
2024-02-20T01:13:03.916Z,720.00
2024-02-20T01:14:03.947Z,719.00
2024-02-20T01:15:03.953Z,718.00
2024-02-20T01:16:04.048Z,720.00
2024-02-20T01:17:03.984Z,721.00
2024-02-20T01:18:04.076Z,722.00
2024-02-20T01:19:04.048Z,723.00
2024-02-20T01:20:04.045Z,723.00
2024-02-20T01:21:04.038Z,723.00
2024-02-20T01:22:04.088Z,723.00
2024-02-20T01:23:04.041Z,726.00
2024-02-20T01:24:04.042Z,726.00
2024-02-20T01:25:04.162Z,726.00
2024-02-20T01:26:04.057Z,724.00
2024-02-20T01:27:04.065Z,723.00
2024-02-20T01:28:04.124Z,722.00
2024-02-20T01:29:04.078Z,720.00
2024-02-20T01:30:04.119Z,723.00
2024-02-20T01:31:04.138Z,724.00
2024-02-20T01:32:04.114Z,724.00
2024-02-20T01:33:04.218Z,724.00
2024-02-20T01:34:04.293Z,724.00
2024-02-20T01:35:04.312Z,726.00
2024-02-20T01:36:04.161Z,724.00
2024-02-20T01:37:04.210Z,722.00
2024-02-20T01:38:04.197Z,721.00
2024-02-20T01:39:04.246Z,723.00
2024-02-20T01:40:04.223Z,724.00
2024-02-20T01:41:04.212Z,724.00
2024-02-20T01:42:04.196Z,722.00
2024-02-20T01:43:04.273Z,723.00
2024-02-20T01:44:04.191Z,723.00
2024-02-20T01:45:04.220Z,722.00
2024-02-20T01:46:04.277Z,722.00
2024-02-20T01:47:04.808Z,721.00
2024-02-20T01:48:04.406Z,722.00
2024-02-20T01:49:04.435Z,722.00
2024-02-20T01:50:04.413Z,721.00
2024-02-20T01:51:04.234Z,721.00
2024-02-20T01:52:04.326Z,723.00
2024-02-20T01:53:04.253Z,722.00
2024-02-20T01:54:04.251Z,724.00
2024-02-20T01:55:04.285Z,728.00
2024-02-20T01:56:04.261Z,726.00
2024-02-20T01:57:04.285Z,726.00
2024-02-20T01:58:04.295Z,725.00
2024-02-20T01:59:04.286Z,723.00
2024-02-20T02:00:04.302Z,721.00
2024-02-20T02:01:04.419Z,720.00
2024-02-20T02:02:04.380Z,722.00
2024-02-20T02:03:04.326Z,725.00
2024-02-20T02:04:04.498Z,726.00
2024-02-20T02:05:04.482Z,726.00
2024-02-20T02:06:04.451Z,727.00
2024-02-20T02:07:04.482Z,728.00
2024-02-20T02:08:04.435Z,727.00
2024-02-20T02:09:04.407Z,727.00
2024-02-20T02:10:04.434Z,727.00
2024-02-20T02:11:04.440Z,728.00
2024-02-20T02:12:04.419Z,727.00
2024-02-20T02:13:04.468Z,727.00
2024-02-20T02:14:04.402Z,726.00
2024-02-20T02:15:04.439Z,726.00
2024-02-20T02:16:04.501Z,727.00
2024-02-20T02:17:04.446Z,729.00
2024-02-20T02:18:04.509Z,729.00
2024-02-20T02:19:04.764Z,729.00
2024-02-20T02:20:04.578Z,731.00
2024-02-20T02:21:04.478Z,730.00
2024-02-20T02:22:04.550Z,730.00
2024-02-20T02:23:04.489Z,728.00
2024-02-20T02:24:04.498Z,727.00
2024-02-20T02:25:04.736Z,730.00
2024-02-20T02:26:04.549Z,731.00
2024-02-20T02:27:04.559Z,731.00
2024-02-20T02:28:04.601Z,729.00
2024-02-20T02:29:04.603Z,729.00
2024-02-20T02:30:04.644Z,729.00
2024-02-20T02:31:04.736Z,730.00
2024-02-20T02:32:04.680Z,731.00
2024-02-20T02:33:04.792Z,732.00
2024-02-20T02:34:04.817Z,732.00
2024-02-20T02:35:04.814Z,729.00
2024-02-20T02:36:04.778Z,730.00
2024-02-20T02:37:04.832Z,729.00
2024-02-20T02:38:04.841Z,731.00
2024-02-20T02:39:04.864Z,732.00
2024-02-20T02:40:04.935Z,736.00
2024-02-20T02:41:04.891Z,735.00
2024-02-20T02:42:04.890Z,735.00
2024-02-20T02:43:04.935Z,733.00
2024-02-20T02:44:04.929Z,732.00
2024-02-20T02:45:04.979Z,731.00
2024-02-20T02:46:04.996Z,729.00
2024-02-20T02:47:05.005Z,731.00
2024-02-20T02:48:05.116Z,734.00
2024-02-20T02:49:05.134Z,733.00
2024-02-20T02:50:05.208Z,734.00
2024-02-20T02:51:05.093Z,733.00
2024-02-20T02:52:05.173Z,733.00
2024-02-20T02:53:05.098Z,734.00
2024-02-20T02:54:05.120Z,737.00
2024-02-20T02:55:05.169Z,741.00
2024-02-20T02:56:05.121Z,742.00
2024-02-20T02:57:05.156Z,745.00
2024-02-20T02:58:05.186Z,746.00
2024-02-20T02:59:05.182Z,748.00
2024-02-20T03:00:05.214Z,749.00
2024-02-20T03:01:05.233Z,749.00
2024-02-20T03:02:05.386Z,750.00
2024-02-20T03:03:05.243Z,749.00
2024-02-20T03:04:05.285Z,748.00
2024-02-20T03:05:05.373Z,749.00
2024-02-20T03:06:05.404Z,747.00
2024-02-20T03:07:05.457Z,749.00
2024-02-20T03:08:05.503Z,750.00
2024-02-20T03:09:05.570Z,748.00
2024-02-20T03:10:05.728Z,746.00
2024-02-20T03:11:05.748Z,741.00
2024-02-20T03:12:05.769Z,741.00
2024-02-20T03:13:05.856Z,739.00
2024-02-20T03:14:05.884Z,739.00
2024-02-20T03:15:06.505Z,737.00
2024-02-20T03:16:06.031Z,738.00
2024-02-20T03:17:06.059Z,736.00
2024-02-20T03:18:06.138Z,733.00
2024-02-20T03:19:06.271Z,733.00
2024-02-20T03:20:06.240Z,730.00
2024-02-20T03:21:06.243Z,731.00
2024-02-20T03:22:06.298Z,732.00
2024-02-20T03:23:06.321Z,730.00
2024-02-20T03:24:06.385Z,730.00
2024-02-20T03:25:06.500Z,727.00
2024-02-20T03:26:06.412Z,727.00
2024-02-20T03:27:06.453Z,728.00
2024-02-20T03:28:06.493Z,729.00
2024-02-20T03:29:06.501Z,728.00
2024-02-20T03:30:06.501Z,732.00
2024-02-20T03:31:06.573Z,733.00
2024-02-20T03:32:06.558Z,735.00
2024-02-20T03:33:06.686Z,735.00
2024-02-20T03:34:06.701Z,736.00
2024-02-20T03:35:06.707Z,738.00
2024-02-20T03:36:06.633Z,735.00
2024-02-20T03:37:06.716Z,735.00
2024-02-20T03:38:06.676Z,733.00
2024-02-20T03:39:06.703Z,733.00
2024-02-20T03:40:06.809Z,733.00
2024-02-20T03:41:06.742Z,732.00
2024-02-20T03:42:06.756Z,732.00
2024-02-20T03:43:06.802Z,734.00
2024-02-20T03:44:06.797Z,735.00
2024-02-20T03:45:06.816Z,735.00
2024-02-20T03:46:06.823Z,734.00
2024-02-20T03:47:06.853Z,733.00
2024-02-20T03:48:07.095Z,736.00
2024-02-20T03:49:07.074Z,739.00
2024-02-20T03:50:06.973Z,739.00
2024-02-20T03:51:06.911Z,737.00
2024-02-20T03:52:06.967Z,738.00
2024-02-20T03:53:08.218Z,739.00
2024-02-20T03:54:06.943Z,741.00
2024-02-20T03:55:06.975Z,742.00
2024-02-20T03:56:06.976Z,741.00
2024-02-20T03:57:06.962Z,739.00
2024-02-20T03:58:07.004Z,739.00
2024-02-20T03:59:06.976Z,737.00
2024-02-20T04:00:07.278Z,735.00
2024-02-20T04:01:07.035Z,734.00
2024-02-20T04:02:07.048Z,738.00
2024-02-20T04:03:07.038Z,738.00
2024-02-20T04:04:07.106Z,738.00
2024-02-20T04:05:07.013Z,738.00
2024-02-20T04:06:07.048Z,739.00
2024-02-20T04:07:07.066Z,740.00
2024-02-20T04:08:07.065Z,739.00
2024-02-20T04:09:07.044Z,740.00
2024-02-20T04:10:07.069Z,740.00
2024-02-20T04:11:07.067Z,739.00
2024-02-20T04:12:07.067Z,738.00
2024-02-20T04:13:07.116Z,737.00
2024-02-20T04:14:07.112Z,733.00
2024-02-20T04:15:07.150Z,736.00
2024-02-20T04:16:07.213Z,735.00
2024-02-20T04:17:07.108Z,735.00
2024-02-20T04:18:07.195Z,737.00
2024-02-20T04:19:07.240Z,740.00
2024-02-20T04:20:07.286Z,739.00
2024-02-20T04:21:07.138Z,737.00
2024-02-20T04:22:07.181Z,739.00
2024-02-20T04:23:07.169Z,742.00
2024-02-20T04:24:07.181Z,742.00
2024-02-20T04:25:07.199Z,743.00
2024-02-20T04:26:07.224Z,743.00
2024-02-20T04:27:07.198Z,742.00
2024-02-20T04:28:07.284Z,742.00
2024-02-20T04:29:07.263Z,742.00
2024-02-20T04:30:07.261Z,741.00
2024-02-20T04:31:07.298Z,741.00
2024-02-20T04:32:07.270Z,742.00
2024-02-20T04:33:07.388Z,740.00
2024-02-20T04:34:07.507Z,739.00
2024-02-20T04:35:14.826Z,745.00
2024-02-20T04:36:14.786Z,742.00
2024-02-20T04:37:14.809Z,739.00
2024-02-20T04:38:14.784Z,741.00
2024-02-20T04:39:14.787Z,740.00
2024-02-20T04:40:14.818Z,743.00
2024-02-20T04:41:14.824Z,742.00
2024-02-20T04:42:14.805Z,741.00
2024-02-20T04:43:14.924Z,742.00
2024-02-20T04:44:14.864Z,740.00
2024-02-20T04:45:14.907Z,742.00
2024-02-20T04:46:15.011Z,740.00
2024-02-20T04:47:15.018Z,740.00
2024-02-20T04:48:15.135Z,739.00
2024-02-20T04:49:15.191Z,739.00
2024-02-20T04:50:15.228Z,740.00
2024-02-20T04:51:15.174Z,740.00
2024-02-20T04:52:15.334Z,741.00
2024-02-20T04:53:15.241Z,742.00
2024-02-20T04:54:15.287Z,744.00
2024-02-20T04:55:15.331Z,745.00
2024-02-20T04:56:15.285Z,743.00
2024-02-20T04:57:15.285Z,746.00
2024-02-20T04:58:15.328Z,748.00
2024-02-20T04:59:15.309Z,749.00
2024-02-20T05:00:15.355Z,748.00
2024-02-20T05:01:15.547Z,749.00
2024-02-20T05:02:15.484Z,749.00
2024-02-20T05:03:15.421Z,750.00
2024-02-20T05:04:15.515Z,750.00
2024-02-20T05:05:15.436Z,748.00
2024-02-20T05:06:15.442Z,747.00
2024-02-20T05:07:15.706Z,747.00
2024-02-20T05:08:15.443Z,745.00
2024-02-20T05:09:15.446Z,749.00
2024-02-20T05:10:15.491Z,750.00
2024-02-20T05:11:15.456Z,752.00
2024-02-20T05:12:15.434Z,752.00
2024-02-20T05:13:15.517Z,752.00
2024-02-20T05:14:15.435Z,751.00
2024-02-20T05:15:15.453Z,752.00
2024-02-20T05:16:15.511Z,750.00
2024-02-20T05:17:15.431Z,750.00
2024-02-20T05:18:15.546Z,749.00
2024-02-20T05:19:15.525Z,749.00
2024-02-20T05:20:15.469Z,749.00
2024-02-20T05:21:15.464Z,749.00
2024-02-20T05:22:15.489Z,749.00
2024-02-20T05:23:15.466Z,749.00
2024-02-20T05:24:15.481Z,749.00
2024-02-20T05:25:15.515Z,748.00
2024-02-20T05:26:15.509Z,747.00
2024-02-20T05:27:15.494Z,747.00
2024-02-20T05:28:15.558Z,749.00
2024-02-20T05:29:15.510Z,749.00
2024-02-20T05:30:15.530Z,748.00
2024-02-20T05:31:15.525Z,749.00
2024-02-20T05:32:15.535Z,749.00
2024-02-20T05:33:15.617Z,749.00
2024-02-20T05:34:15.659Z,749.00
2024-02-20T05:35:15.649Z,749.00
2024-02-20T05:36:15.537Z,747.00
2024-02-20T05:37:15.575Z,749.00
2024-02-20T05:38:15.575Z,752.00
2024-02-20T05:39:15.556Z,753.00
2024-02-20T05:40:15.666Z,753.00
2024-02-20T05:41:15.572Z,753.00
2024-02-20T05:42:15.581Z,750.00
2024-02-20T05:43:15.600Z,750.00
2024-02-20T05:44:16.761Z,750.00
2024-02-20T05:45:15.590Z,749.00
2024-02-20T05:46:15.618Z,752.00
2024-02-20T05:47:15.600Z,750.00
2024-02-20T05:48:15.709Z,749.00
2024-02-20T05:49:15.817Z,745.00
2024-02-20T05:50:15.822Z,744.00
2024-02-20T05:51:15.631Z,746.00
2024-02-20T05:52:15.668Z,747.00
2024-02-20T05:53:15.640Z,748.00
2024-02-20T05:54:15.657Z,747.00
2024-02-20T05:55:15.722Z,746.00
2024-02-20T05:56:15.663Z,747.00
2024-02-20T05:57:15.666Z,747.00
2024-02-20T05:58:15.733Z,746.00
2024-02-20T05:59:15.678Z,747.00
2024-02-20T06:00:15.700Z,748.00
2024-02-20T06:01:15.727Z,749.00
2024-02-20T06:02:15.819Z,746.00
2024-02-20T06:03:15.710Z,745.00
2024-02-20T06:04:15.818Z,743.00
2024-02-20T06:05:15.958Z,742.00
2024-02-20T06:06:15.760Z,741.00
2024-02-20T06:07:15.782Z,743.00
2024-02-20T06:08:15.779Z,746.00
2024-02-20T06:09:15.793Z,747.00
2024-02-20T06:10:15.849Z,749.00
2024-02-20T06:11:15.878Z,747.00
2024-02-20T06:12:15.843Z,747.00
2024-02-20T06:13:15.907Z,749.00
2024-02-20T06:14:15.852Z,748.00
2024-02-20T06:15:15.861Z,749.00
2024-02-20T06:16:16.000Z,747.00
2024-02-20T06:17:15.910Z,747.00
2024-02-20T06:18:15.990Z,746.00
2024-02-20T06:19:16.061Z,748.00
2024-02-20T06:20:15.984Z,746.00
2024-02-20T06:21:15.968Z,746.00
2024-02-20T06:22:15.995Z,745.00
2024-02-20T06:23:15.979Z,747.00
2024-02-20T06:24:16.000Z,746.00
2024-02-20T06:25:16.028Z,736.00
2024-02-20T06:26:16.277Z,653.00
2024-02-20T06:27:16.077Z,641.00
2024-02-20T06:28:16.198Z,629.00
2024-02-20T06:29:16.131Z,618.00
2024-02-20T06:30:16.214Z,604.00
2024-02-20T06:31:16.331Z,600.00
2024-02-20T06:32:16.350Z,589.00
2024-02-20T06:33:16.473Z,578.00
2024-02-20T06:34:16.614Z,554.00
2024-02-20T06:35:16.395Z,565.00
2024-02-20T06:36:16.415Z,566.00
2024-02-20T06:37:16.461Z,568.00
2024-02-20T06:38:16.456Z,570.00
2024-02-20T06:39:16.491Z,570.00
2024-02-20T06:40:16.608Z,569.00
2024-02-20T06:41:16.552Z,566.00
2024-02-20T06:42:16.609Z,571.00
2024-02-20T06:43:16.720Z,576.00
2024-02-20T06:44:16.662Z,658.00
2024-02-20T06:45:16.705Z,723.00
2024-02-20T06:46:16.740Z,615.00
2024-02-20T06:47:16.746Z,690.00
2024-02-20T06:48:16.889Z,713.00
2024-02-20T06:49:16.898Z,732.00
2024-02-20T06:50:16.949Z,751.00
2024-02-20T06:51:16.850Z,763.00
2024-02-20T06:52:16.949Z,781.00
2024-02-20T06:53:16.973Z,815.00
2024-02-20T06:54:17.073Z,849.00
2024-02-20T06:55:17.128Z,841.00
2024-02-20T06:56:17.246Z,831.00
2024-02-20T06:57:17.274Z,740.00
2024-02-20T06:58:17.280Z,718.00
2024-02-20T06:59:17.299Z,701.00
2024-02-20T07:00:17.311Z,691.00
2024-02-20T07:01:17.479Z,687.00
2024-02-20T07:02:17.441Z,644.00
2024-02-20T07:03:17.406Z,641.00
2024-02-20T07:04:17.556Z,632.00
2024-02-20T07:05:17.731Z,619.00
2024-02-20T07:06:17.659Z,601.00
2024-02-20T07:07:17.585Z,588.00
2024-02-20T07:08:17.479Z,573.00
2024-02-20T07:09:17.501Z,564.00
2024-02-20T07:10:17.637Z,557.00
2024-02-20T07:11:17.602Z,551.00
2024-02-20T07:12:17.504Z,546.00
2024-02-20T07:13:17.541Z,541.00
2024-02-20T07:14:17.515Z,537.00
2024-02-20T07:15:17.509Z,534.00
2024-02-20T07:16:17.782Z,531.00
2024-02-20T07:17:17.534Z,528.00
2024-02-20T07:18:17.584Z,526.00
2024-02-20T07:19:17.719Z,526.00
2024-02-20T07:20:17.764Z,524.00
2024-02-20T07:21:17.562Z,523.00
2024-02-20T07:22:17.611Z,521.00
2024-02-20T07:23:17.597Z,519.00
2024-02-20T07:24:17.601Z,516.00
2024-02-20T07:25:17.627Z,515.00
2024-02-20T07:26:17.613Z,512.00
2024-02-20T07:27:17.606Z,510.00
2024-02-20T07:28:17.685Z,509.00
2024-02-20T07:29:17.634Z,508.00
2024-02-20T07:30:17.729Z,505.00
2024-02-20T07:31:17.731Z,502.00
2024-02-20T07:32:17.677Z,501.00
2024-02-20T07:33:27.756Z,500.00
2024-02-20T07:34:18.914Z,499.00
2024-02-20T07:35:17.867Z,497.00
2024-02-20T07:36:17.753Z,497.00
2024-02-20T07:37:17.796Z,498.00
2024-02-20T07:38:17.756Z,498.00
2024-02-20T07:39:17.697Z,498.00
2024-02-20T07:40:17.771Z,498.00
2024-02-20T07:41:17.699Z,501.00
2024-02-20T07:42:17.722Z,500.00
2024-02-20T07:43:17.741Z,503.00
2024-02-20T07:44:17.695Z,504.00
2024-02-20T07:45:17.691Z,503.00
2024-02-20T07:46:17.717Z,503.00
2024-02-20T07:47:17.722Z,505.00
2024-02-20T07:48:17.799Z,502.00
2024-02-20T07:49:17.924Z,503.00
2024-02-20T07:50:17.783Z,504.00
2024-02-20T07:51:17.937Z,505.00
2024-02-20T07:52:17.775Z,515.00
2024-02-20T07:53:17.762Z,528.00
2024-02-20T07:54:17.730Z,537.00
2024-02-20T07:55:17.809Z,552.00
2024-02-20T07:56:17.728Z,592.00
2024-02-20T07:57:17.770Z,590.00
2024-02-20T07:58:19.727Z,591.00
2024-02-20T07:59:17.763Z,604.00
2024-02-20T08:00:17.719Z,608.00
2024-02-20T08:01:20.582Z,613.00
2024-02-20T08:02:17.957Z,614.00
2024-02-20T08:03:17.741Z,617.00
2024-02-20T08:04:17.833Z,615.00
2024-02-20T08:05:17.916Z,614.00
2024-02-20T08:06:17.758Z,608.00
2024-02-20T08:07:17.863Z,605.00
2024-02-20T08:08:17.742Z,599.00
2024-02-20T08:09:17.750Z,599.00
2024-02-20T08:10:17.797Z,596.00
2024-02-20T08:11:17.820Z,598.00
2024-02-20T08:12:17.924Z,603.00
2024-02-20T08:13:17.777Z,601.00
2024-02-20T08:14:17.730Z,593.00
2024-02-20T08:15:17.747Z,598.00
2024-02-20T08:16:17.899Z,600.00
2024-02-20T08:17:17.852Z,607.00
2024-02-20T08:18:17.883Z,610.00
2024-02-20T08:19:17.968Z,610.00
2024-02-20T08:20:18.182Z,607.00
2024-02-20T08:21:18.025Z,608.00
2024-02-20T08:22:18.174Z,605.00
2024-02-20T08:23:18.118Z,603.00
2024-02-20T08:24:18.157Z,602.00
2024-02-20T08:25:18.236Z,615.00
2024-02-20T08:26:18.225Z,618.00
2024-02-20T08:27:18.288Z,622.00
2024-02-20T08:28:18.364Z,618.00
2024-02-20T08:29:18.350Z,621.00
2024-02-20T08:30:18.385Z,624.00
2024-02-20T08:31:18.450Z,623.00
2024-02-20T08:32:18.483Z,617.00
2024-02-20T08:33:18.541Z,615.00
2024-02-20T08:34:18.595Z,611.00
2024-02-20T08:35:18.709Z,669.00
2024-02-20T08:36:18.638Z,688.00
2024-02-20T08:37:18.723Z,692.00
2024-02-20T08:38:18.670Z,705.00
2024-02-20T08:39:18.661Z,731.00
2024-02-20T08:40:18.696Z,800.00
2024-02-20T08:41:18.741Z,828.00
2024-02-20T08:42:18.823Z,838.00
2024-02-20T08:43:18.932Z,844.00
2024-02-20T08:44:18.940Z,848.00
2024-02-20T08:45:19.008Z,859.00
2024-02-20T08:46:19.180Z,867.00
2024-02-20T08:47:19.118Z,886.00
2024-02-20T08:48:19.249Z,948.00
2024-02-20T08:49:19.282Z,973.00
2024-02-20T08:50:19.434Z,989.00
2024-02-20T08:51:19.347Z,1004.00
2024-02-20T08:52:19.438Z,1006.00
2024-02-20T08:53:19.471Z,1004.00
2024-02-20T08:54:19.462Z,1000.00
2024-02-20T08:55:19.615Z,1001.00
2024-02-20T08:56:19.608Z,1002.00
2024-02-20T08:57:19.629Z,1002.00
2024-02-20T08:58:19.704Z,1001.00
2024-02-20T08:59:19.713Z,1004.00
2024-02-20T09:00:19.754Z,1005.00
2024-02-20T09:01:19.879Z,1006.00
2024-02-20T09:02:19.985Z,1008.00
2024-02-20T09:03:20.505Z,1009.00
2024-02-20T09:04:20.098Z,1008.00
2024-02-20T09:05:20.051Z,1007.00
2024-02-20T09:06:20.065Z,1007.00
2024-02-20T09:07:27.375Z,1002.00
2024-02-20T09:08:27.295Z,1004.00
2024-02-20T09:09:27.277Z,1004.00
2024-02-20T09:10:27.349Z,1004.00
2024-02-20T09:11:27.374Z,1003.00
2024-02-20T09:12:27.271Z,1003.00
2024-02-20T09:13:27.333Z,1000.00
2024-02-20T09:14:27.337Z,1002.00
2024-02-20T09:15:27.291Z,1002.00
2024-02-20T09:16:27.328Z,1002.00
2024-02-20T09:17:27.342Z,1002.00
2024-02-20T09:18:27.344Z,1003.00
2024-02-20T09:19:27.330Z,1004.00
2024-02-20T09:20:27.408Z,1004.00
2024-02-20T09:21:27.331Z,1004.00
2024-02-20T09:22:27.336Z,1005.00
2024-02-20T09:23:27.349Z,1005.00
2024-02-20T09:24:27.305Z,1005.00
2024-02-20T09:25:27.414Z,1005.00
2024-02-20T09:26:27.362Z,1004.00
2024-02-20T09:27:27.419Z,1003.00
2024-02-20T09:28:27.513Z,1004.00
2024-02-20T09:29:27.478Z,1005.00
2024-02-20T09:30:27.494Z,1006.00
2024-02-20T09:31:27.600Z,1008.00
2024-02-20T09:32:27.609Z,1011.00
2024-02-20T09:33:27.785Z,1015.00
2024-02-20T09:34:27.673Z,1018.00
2024-02-20T09:35:27.662Z,1021.00
2024-02-20T09:36:27.705Z,1024.00
2024-02-20T09:37:27.733Z,1026.00
2024-02-20T09:38:27.749Z,1028.00
2024-02-20T09:39:27.763Z,1031.00
2024-02-20T09:40:27.810Z,1032.00
2024-02-20T09:41:27.820Z,1036.00
2024-02-20T09:42:27.856Z,1041.00
2024-02-20T09:43:27.897Z,1047.00
2024-02-20T09:44:27.887Z,1049.00
2024-02-20T09:45:27.958Z,1048.00
2024-02-20T09:46:28.000Z,1051.00
2024-02-20T09:47:28.012Z,1062.00
2024-02-20T09:48:28.062Z,1078.00
2024-02-20T09:49:28.167Z,1092.00
2024-02-20T09:50:28.163Z,1101.00
2024-02-20T09:51:28.270Z,1107.00
2024-02-20T09:52:28.096Z,1113.00
2024-02-20T09:53:28.207Z,1128.00
2024-02-20T09:54:28.215Z,1149.00
2024-02-20T09:55:28.516Z,1153.00
2024-02-20T09:56:28.223Z,1158.00
2024-02-20T09:57:28.214Z,1162.00
2024-02-20T09:58:30.910Z,1159.00
2024-02-20T09:59:29.170Z,1158.00
2024-02-20T10:00:28.296Z,1163.00
2024-02-20T10:01:28.352Z,1171.00
2024-02-20T10:02:28.161Z,1177.00
2024-02-20T10:03:28.211Z,1183.00
2024-02-20T10:04:28.324Z,1185.00
2024-02-20T10:05:28.354Z,1183.00
2024-02-20T10:06:28.416Z,1182.00
2024-02-20T10:07:28.200Z,1179.00
2024-02-20T10:08:28.214Z,1182.00
2024-02-20T10:09:28.190Z,1184.00
2024-02-20T10:10:28.328Z,1191.00
2024-02-20T10:11:28.270Z,1194.00
2024-02-20T10:12:28.257Z,1198.00
2024-02-20T10:13:28.310Z,1199.00
2024-02-20T10:14:28.223Z,1200.00
2024-02-20T10:15:28.254Z,1201.00
2024-02-20T10:16:28.340Z,1199.00
2024-02-20T10:17:28.322Z,1196.00
2024-02-20T10:18:28.311Z,1194.00
2024-02-20T10:19:28.466Z,1197.00
2024-02-20T10:20:28.564Z,1203.00
2024-02-20T10:21:28.397Z,1205.00
2024-02-20T10:22:28.488Z,1203.00
2024-02-20T10:23:28.509Z,1206.00
2024-02-20T10:24:35.097Z,1203.00
2024-02-20T10:25:29.562Z,1204.00
2024-02-20T10:26:28.517Z,1206.00
2024-02-20T10:27:28.540Z,1206.00
2024-02-20T10:28:28.562Z,1206.00
2024-02-20T10:29:28.539Z,1207.00
2024-02-20T10:30:28.554Z,1208.00
2024-02-20T10:31:28.560Z,1210.00
2024-02-20T10:32:28.562Z,1214.00
2024-02-20T10:33:30.586Z,1216.00
2024-02-20T10:34:28.629Z,1215.00
2024-02-20T10:35:28.696Z,1216.00
2024-02-20T10:36:28.545Z,1215.00
2024-02-20T10:37:28.655Z,1216.00
2024-02-20T10:38:28.548Z,1212.00
2024-02-20T10:39:28.529Z,1211.00
2024-02-20T10:40:28.716Z,1208.00
2024-02-20T10:41:28.600Z,1207.00
2024-02-20T10:42:28.524Z,1206.00
2024-02-20T10:43:28.552Z,1203.00
2024-02-20T10:44:28.541Z,1203.00
2024-02-20T10:45:28.882Z,1206.00
2024-02-20T10:46:28.596Z,1206.00
2024-02-20T10:47:28.570Z,1207.00
2024-02-20T10:48:28.681Z,1298.00
2024-02-20T10:49:31.628Z,1273.00
2024-02-20T10:50:28.690Z,1285.00
2024-02-20T10:51:28.536Z,1295.00
2024-02-20T10:52:28.554Z,1304.00
2024-02-20T10:53:28.530Z,1302.00
2024-02-20T10:54:35.527Z,1300.00
2024-02-20T10:55:33.054Z,1298.00
2024-02-20T10:56:29.643Z,1294.00
2024-02-20T10:57:28.586Z,1299.00
2024-02-20T10:58:28.579Z,1301.00
2024-02-20T10:59:28.535Z,1302.00
2024-02-20T11:00:28.624Z,1305.00
2024-02-20T11:01:28.658Z,1307.00
2024-02-20T11:02:28.594Z,1312.00
2024-02-20T11:03:32.982Z,1315.00
2024-02-20T11:04:29.586Z,1313.00
2024-02-20T11:05:28.647Z,1317.00
2024-02-20T11:06:28.656Z,1314.00
2024-02-20T11:07:28.640Z,1311.00
2024-02-20T11:08:28.802Z,1311.00
2024-02-20T11:09:28.568Z,1313.00
2024-02-20T11:10:28.592Z,1315.00
2024-02-20T11:11:28.586Z,1315.00
2024-02-20T11:12:29.938Z,1313.00
2024-02-20T11:13:28.962Z,1313.00
2024-02-20T11:14:28.693Z,1311.00
2024-02-20T11:15:28.727Z,1313.00
2024-02-20T11:16:28.806Z,1316.00
2024-02-20T11:17:29.877Z,1316.00
2024-02-20T11:18:29.086Z,1314.00
2024-02-20T11:19:29.067Z,1311.00
2024-02-20T11:20:29.069Z,1313.00
2024-02-20T11:21:29.062Z,1314.00
2024-02-20T11:22:29.160Z,1312.00
2024-02-20T11:23:29.188Z,1315.00
2024-02-20T11:24:29.263Z,1316.00
2024-02-20T11:25:29.420Z,1317.00
2024-02-20T11:26:29.415Z,1320.00
2024-02-20T11:27:29.455Z,1316.00
2024-02-20T11:28:29.577Z,1317.00
2024-02-20T11:29:29.610Z,1318.00
2024-02-20T11:30:29.682Z,1322.00
2024-02-20T11:31:29.831Z,1323.00
2024-02-20T11:32:29.917Z,1325.00
2024-02-20T11:33:30.131Z,1328.00
2024-02-20T11:34:30.073Z,1330.00
2024-02-20T11:35:30.081Z,1330.00
2024-02-20T11:36:30.101Z,1331.00
2024-02-20T11:37:35.428Z,1327.00
2024-02-20T11:38:31.291Z,1326.00
2024-02-20T11:39:30.185Z,1328.00
2024-02-20T11:40:30.219Z,1332.00
2024-02-20T11:41:30.206Z,1329.00
2024-02-20T11:42:30.183Z,1328.00
2024-02-20T11:43:30.219Z,1340.00
2024-02-20T11:44:30.170Z,1348.00
2024-02-20T11:45:30.218Z,1348.00
2024-02-20T11:46:30.243Z,1345.00
2024-02-20T11:47:30.241Z,1350.00
2024-02-20T11:48:30.423Z,1348.00
2024-02-20T11:49:30.387Z,1351.00
2024-02-20T11:50:30.373Z,1348.00
2024-02-20T11:51:30.421Z,1349.00
2024-02-20T11:52:30.576Z,1349.00
2024-02-20T11:53:30.697Z,1349.00
2024-02-20T11:54:30.591Z,1349.00
2024-02-20T11:55:30.714Z,1349.00
2024-02-20T11:56:30.710Z,1351.00
2024-02-20T11:57:30.736Z,1351.00
2024-02-20T11:58:30.961Z,1351.00
2024-02-20T11:59:30.839Z,1354.00
2024-02-20T12:00:30.876Z,1354.00
2024-02-20T12:01:30.955Z,1354.00
2024-02-20T12:02:30.925Z,1353.00
2024-02-20T12:03:30.958Z,1354.00
2024-02-20T12:04:31.151Z,1356.00
2024-02-20T12:05:31.151Z,1355.00
2024-02-20T12:06:31.081Z,1357.00
2024-02-20T12:07:31.304Z,1358.00
2024-02-20T12:08:31.278Z,1357.00
2024-02-20T12:09:31.212Z,1355.00
2024-02-20T12:10:31.266Z,1351.00
2024-02-20T12:11:31.401Z,1352.00
2024-02-20T12:12:31.331Z,1355.00
2024-02-20T12:13:31.451Z,1357.00
2024-02-20T12:14:31.410Z,1358.00
2024-02-20T12:15:31.454Z,1358.00
2024-02-20T12:16:31.942Z,1359.00
2024-02-20T12:17:31.574Z,1360.00
2024-02-20T12:18:31.659Z,1360.00
2024-02-20T12:19:31.746Z,1363.00
2024-02-20T12:20:31.703Z,1359.00
2024-02-20T12:21:31.700Z,1352.00